sensor_id;sensor_type;location;lat;lon;timestamp;P1;durP1;ratioP1;P2;durP2;ratioP2
59028;SDS011;45919;51.420;5.454;2022-08-03T00:00:43;11.15;;;5.60;;
59028;SDS011;45919;51.420;5.454;2022-08-03T00:01:44;13.68;;;6.18;;
59028;SDS011;45919;51.420;5.454;2022-08-03T00:02:46;15.18;;;5.55;;
59028;SDS011;45919;51.420;5.454;2022-08-03T00:03:48;11.55;;;5.47;;
59028;SDS011;45919;51.420;5.454;2022-08-03T00:04:49;11.77;;;5.50;;
59028;SDS011;45919;51.420;5.454;2022-08-03T00:05:51;14.60;;;5.50;;
59028;SDS011;45919;51.420;5.454;2022-08-03T00:06:53;12.27;;;5.55;;
59028;SDS011;45919;51.420;5.454;2022-08-03T00:07:54;13.38;;;5.53;;
59028;SDS011;45919;51.420;5.454;2022-08-03T00:08:56;13.60;;;5.45;;
59028;SDS011;45919;51.420;5.454;2022-08-03T00:09:57;14.25;;;5.97;;
59028;SDS011;45919;51.420;5.454;2022-08-03T00:10:59;11.77;;;5.47;;
59028;SDS011;45919;51.420;5.454;2022-08-03T00:12:01;14.65;;;6.25;;
59028;SDS011;45919;51.420;5.454;2022-08-03T00:13:03;13.43;;;5.88;;
59028;SDS011;45919;51.420;5.454;2022-08-03T00:14:05;12.13;;;5.80;;
59028;SDS011;45919;51.420;5.454;2022-08-03T00:15:07;17.83;;;5.88;;
59028;SDS011;45919;51.420;5.454;2022-08-03T00:16:09;13.45;;;5.70;;
59028;SDS011;45919;51.420;5.454;2022-08-03T00:17:11;16.70;;;5.82;;
59028;SDS011;45919;51.420;5.454;2022-08-03T00:18:13;13.55;;;5.32;;
59028;SDS011;45919;51.420;5.454;2022-08-03T00:19:14;15.32;;;6.05;;
59028;SDS011;45919;51.420;5.454;2022-08-03T00:20:16;13.68;;;5.50;;
59028;SDS011;45919;51.420;5.454;2022-08-03T00:21:18;14.80;;;6.20;;
59028;SDS011;45919;51.420;5.454;2022-08-03T00:22:19;13.07;;;5.93;;
59028;SDS011;45919;51.420;5.454;2022-08-03T00:23:21;16.70;;;5.65;;
59028;SDS011;45919;51.420;5.454;2022-08-03T00:24:22;11.93;;;6.00;;
59028;SDS011;45919;51.420;5.454;2022-08-03T00:25:24;15.05;;;6.07;;
59028;SDS011;45919;51.420;5.454;2022-08-03T00:26:26;9.63;;;5.78;;
59028;SDS011;45919;51.420;5.454;2022-08-03T00:27:27;14.60;;;5.97;;
59028;SDS011;45919;51.420;5.454;2022-08-03T00:28:29;12.13;;;5.88;;
59028;SDS011;45919;51.420;5.454;2022-08-03T00:29:31;11.73;;;5.70;;
59028;SDS011;45919;51.420;5.454;2022-08-03T00:30:32;12.10;;;6.32;;
59028;SDS011;45919;51.420;5.454;2022-08-03T00:31:34;14.35;;;6.88;;
59028;SDS011;45919;51.420;5.454;2022-08-03T00:32:36;12.10;;;6.15;;
59028;SDS011;45919;51.420;5.454;2022-08-03T00:33:38;15.45;;;5.60;;
59028;SDS011;45919;51.420;5.454;2022-08-03T00:34:39;12.18;;;5.78;;
59028;SDS011;45919;51.420;5.454;2022-08-03T00:35:41;13.77;;;6.43;;
59028;SDS011;45919;51.420;5.454;2022-08-03T00:36:43;19.05;;;6.40;;
59028;SDS011;45919;51.420;5.454;2022-08-03T00:37:44;13.05;;;5.65;;
59028;SDS011;45919;51.420;5.454;2022-08-03T00:38:47;15.63;;;6.20;;
59028;SDS011;45919;51.420;5.454;2022-08-03T00:39:48;12.75;;;5.75;;
59028;SDS011;45919;51.420;5.454;2022-08-03T00:40:50;7.85;;;5.82;;
59028;SDS011;45919;51.420;5.454;2022-08-03T00:41:52;14.20;;;6.43;;
59028;SDS011;45919;51.420;5.454;2022-08-03T00:42:56;12.05;;;6.10;;
59028;SDS011;45919;51.420;5.454;2022-08-03T00:43:59;12.75;;;6.05;;
59028;SDS011;45919;51.420;5.454;2022-08-03T00:45:01;12.40;;;6.10;;
59028;SDS011;45919;51.420;5.454;2022-08-03T00:46:02;12.48;;;5.78;;
59028;SDS011;45919;51.420;5.454;2022-08-03T00:47:04;12.43;;;6.00;;
59028;SDS011;45919;51.420;5.454;2022-08-03T00:48:07;10.60;;;5.50;;
59028;SDS011;45919;51.420;5.454;2022-08-03T00:49:09;10.48;;;6.43;;
59028;SDS011;45919;51.420;5.454;2022-08-03T00:50:11;15.88;;;6.00;;
59028;SDS011;45919;51.420;5.454;2022-08-03T00:51:13;10.82;;;6.18;;
59028;SDS011;45919;51.420;5.454;2022-08-03T00:52:15;14.20;;;5.50;;
59028;SDS011;45919;51.420;5.454;2022-08-03T00:53:17;15.48;;;5.93;;
59028;SDS011;45919;51.420;5.454;2022-08-03T00:54:19;13.18;;;6.40;;
59028;SDS011;45919;51.420;5.454;2022-08-03T00:55:21;11.32;;;6.47;;
59028;SDS011;45919;51.420;5.454;2022-08-03T00:56:23;13.07;;;6.20;;
59028;SDS011;45919;51.420;5.454;2022-08-03T00:57:25;13.18;;;6.68;;
59028;SDS011;45919;51.420;5.454;2022-08-03T00:58:29;14.55;;;6.25;;
59028;SDS011;45919;51.420;5.454;2022-08-03T00:59:30;11.23;;;6.15;;
59028;SDS011;45919;51.420;5.454;2022-08-03T01:00:33;14.38;;;6.22;;
59028;SDS011;45919;51.420;5.454;2022-08-03T01:01:36;14.05;;;6.07;;
59028;SDS011;45919;51.420;5.454;2022-08-03T01:02:38;11.07;;;5.97;;
59028;SDS011;45919;51.420;5.454;2022-08-03T01:03:40;15.90;;;6.43;;
59028;SDS011;45919;51.420;5.454;2022-08-03T01:04:42;16.45;;;6.18;;
59028;SDS011;45919;51.420;5.454;2022-08-03T01:06:56;12.82;;;6.22;;
59028;SDS011;45919;51.420;5.454;2022-08-03T01:08:27;13.43;;;6.72;;
59028;SDS011;45919;51.420;5.454;2022-08-03T01:12:21;14.77;;;6.45;;
59028;SDS011;45919;51.420;5.454;2022-08-03T01:14:48;12.07;;;6.35;;
59028;SDS011;45919;51.420;5.454;2022-08-03T01:17:18;12.50;;;7.30;;
59028;SDS011;45919;51.420;5.454;2022-08-03T01:20:07;15.25;;;7.25;;
59028;SDS011;45919;51.420;5.454;2022-08-03T01:21:22;14.00;;;7.38;;
59028;SDS011;45919;51.420;5.454;2022-08-03T01:26:51;18.40;;;7.50;;
59028;SDS011;45919;51.420;5.454;2022-08-03T01:30:52;13.85;;;6.70;;
59028;SDS011;45919;51.420;5.454;2022-08-03T01:32:04;13.60;;;7.93;;
59028;SDS011;45919;51.420;5.454;2022-08-03T01:33:23;12.88;;;7.35;;
59028;SDS011;45919;51.420;5.454;2022-08-03T01:34:31;15.50;;;7.35;;
59028;SDS011;45919;51.420;5.454;2022-08-03T01:35:41;13.23;;;6.88;;
59028;SDS011;45919;51.420;5.454;2022-08-03T01:37:56;11.15;;;6.68;;
59028;SDS011;45919;51.420;5.454;2022-08-03T01:39:05;13.30;;;7.53;;
59028;SDS011;45919;51.420;5.454;2022-08-03T01:40:11;12.32;;;6.97;;
59028;SDS011;45919;51.420;5.454;2022-08-03T01:41:16;13.43;;;7.50;;
59028;SDS011;45919;51.420;5.454;2022-08-03T01:42:21;10.05;;;7.22;;
59028;SDS011;45919;51.420;5.454;2022-08-03T01:43:25;12.80;;;6.93;;
59028;SDS011;45919;51.420;5.454;2022-08-03T01:44:33;11.63;;;6.70;;
59028;SDS011;45919;51.420;5.454;2022-08-03T01:45:38;14.40;;;7.20;;
59028;SDS011;45919;51.420;5.454;2022-08-03T01:46:41;13.85;;;7.07;;
59028;SDS011;45919;51.420;5.454;2022-08-03T01:47:44;11.95;;;6.72;;
59028;SDS011;45919;51.420;5.454;2022-08-03T01:48:47;13.65;;;6.82;;
59028;SDS011;45919;51.420;5.454;2022-08-03T01:49:50;13.15;;;7.32;;
59028;SDS011;45919;51.420;5.454;2022-08-03T01:50:53;14.73;;;7.00;;
59028;SDS011;45919;51.420;5.454;2022-08-03T01:51:57;13.48;;;6.47;;
59028;SDS011;45919;51.420;5.454;2022-08-03T01:53:00;12.10;;;7.18;;
59028;SDS011;45919;51.420;5.454;2022-08-03T01:54:04;14.82;;;7.20;;
59028;SDS011;45919;51.420;5.454;2022-08-03T01:55:06;12.77;;;6.50;;
59028;SDS011;45919;51.420;5.454;2022-08-03T01:56:09;15.40;;;7.00;;
59028;SDS011;45919;51.420;5.454;2022-08-03T01:57:12;11.20;;;6.63;;
59028;SDS011;45919;51.420;5.454;2022-08-03T01:58:15;11.68;;;6.97;;
59028;SDS011;45919;51.420;5.454;2022-08-03T01:59:19;13.20;;;6.40;;
59028;SDS011;45919;51.420;5.454;2022-08-03T02:00:23;16.77;;;6.70;;
59028;SDS011;45919;51.420;5.454;2022-08-03T02:01:26;12.82;;;6.65;;
59028;SDS011;45919;51.420;5.454;2022-08-03T02:02:29;13.32;;;6.80;;
59028;SDS011;45919;51.420;5.454;2022-08-03T02:03:37;12.45;;;7.32;;
59028;SDS011;45919;51.420;5.454;2022-08-03T02:04:44;14.93;;;6.82;;
59028;SDS011;45919;51.420;5.454;2022-08-03T02:05:48;16.73;;;6.88;;
59028;SDS011;45919;51.420;5.454;2022-08-03T02:06:54;15.07;;;7.10;;
59028;SDS011;45919;51.420;5.454;2022-08-03T02:07:58;16.45;;;7.32;;
59028;SDS011;45919;51.420;5.454;2022-08-03T02:09:02;13.25;;;6.57;;
59028;SDS011;45919;51.420;5.454;2022-08-03T02:10:06;12.15;;;6.85;;
59028;SDS011;45919;51.420;5.454;2022-08-03T02:11:08;18.23;;;7.35;;
59028;SDS011;45919;51.420;5.454;2022-08-03T02:12:10;16.42;;;7.50;;
59028;SDS011;45919;51.420;5.454;2022-08-03T02:13:14;11.77;;;6.80;;
59028;SDS011;45919;51.420;5.454;2022-08-03T02:14:18;12.20;;;6.90;;
59028;SDS011;45919;51.420;5.454;2022-08-03T02:15:22;12.55;;;7.15;;
59028;SDS011;45919;51.420;5.454;2022-08-03T02:16:24;14.95;;;7.50;;
59028;SDS011;45919;51.420;5.454;2022-08-03T02:17:28;13.40;;;7.18;;
59028;SDS011;45919;51.420;5.454;2022-08-03T02:18:31;12.73;;;6.70;;
59028;SDS011;45919;51.420;5.454;2022-08-03T02:19:34;10.38;;;6.88;;
59028;SDS011;45919;51.420;5.454;2022-08-03T02:20:37;15.32;;;7.10;;
59028;SDS011;45919;51.420;5.454;2022-08-03T02:21:40;12.60;;;6.53;;
59028;SDS011;45919;51.420;5.454;2022-08-03T02:22:46;13.00;;;6.93;;
59028;SDS011;45919;51.420;5.454;2022-08-03T02:23:48;14.27;;;7.57;;
59028;SDS011;45919;51.420;5.454;2022-08-03T02:24:50;16.60;;;6.70;;
59028;SDS011;45919;51.420;5.454;2022-08-03T02:25:53;14.98;;;6.63;;
59028;SDS011;45919;51.420;5.454;2022-08-03T02:26:58;11.05;;;7.10;;
59028;SDS011;45919;51.420;5.454;2022-08-03T02:28:21;12.15;;;6.90;;
59028;SDS011;45919;51.420;5.454;2022-08-03T02:29:30;14.02;;;7.38;;
59028;SDS011;45919;51.420;5.454;2022-08-03T02:30:35;12.57;;;7.00;;
59028;SDS011;45919;51.420;5.454;2022-08-03T02:31:39;19.13;;;6.95;;
59028;SDS011;45919;51.420;5.454;2022-08-03T02:32:46;15.55;;;7.30;;
59028;SDS011;45919;51.420;5.454;2022-08-03T02:33:56;17.50;;;7.60;;
59028;SDS011;45919;51.420;5.454;2022-08-03T02:35:01;13.32;;;8.20;;
59028;SDS011;45919;51.420;5.454;2022-08-03T02:36:05;15.52;;;6.47;;
59028;SDS011;45919;51.420;5.454;2022-08-03T02:37:09;11.20;;;6.50;;
59028;SDS011;45919;51.420;5.454;2022-08-03T02:38:12;14.98;;;7.10;;
59028;SDS011;45919;51.420;5.454;2022-08-03T02:39:16;15.20;;;6.93;;
59028;SDS011;45919;51.420;5.454;2022-08-03T02:40:22;14.35;;;7.15;;
59028;SDS011;45919;51.420;5.454;2022-08-03T02:41:27;14.80;;;7.38;;
59028;SDS011;45919;51.420;5.454;2022-08-03T02:42:33;19.52;;;6.95;;
59028;SDS011;45919;51.420;5.454;2022-08-03T02:43:36;12.27;;;7.15;;
59028;SDS011;45919;51.420;5.454;2022-08-03T02:44:40;12.45;;;7.30;;
59028;SDS011;45919;51.420;5.454;2022-08-03T02:45:48;14.68;;;7.35;;
59028;SDS011;45919;51.420;5.454;2022-08-03T02:46:53;14.88;;;7.18;;
59028;SDS011;45919;51.420;5.454;2022-08-03T02:47:59;15.50;;;7.28;;
59028;SDS011;45919;51.420;5.454;2022-08-03T02:49:04;18.33;;;7.60;;
59028;SDS011;45919;51.420;5.454;2022-08-03T02:50:10;14.57;;;7.00;;
59028;SDS011;45919;51.420;5.454;2022-08-03T02:51:13;12.30;;;7.22;;
59028;SDS011;45919;51.420;5.454;2022-08-03T02:52:19;15.20;;;7.80;;
59028;SDS011;45919;51.420;5.454;2022-08-03T02:53:23;14.80;;;7.40;;
59028;SDS011;45919;51.420;5.454;2022-08-03T02:54:26;16.45;;;7.07;;
59028;SDS011;45919;51.420;5.454;2022-08-03T02:55:29;13.13;;;7.43;;
59028;SDS011;45919;51.420;5.454;2022-08-03T02:56:35;15.57;;;6.88;;
59028;SDS011;45919;51.420;5.454;2022-08-03T02:57:38;16.77;;;7.45;;
59028;SDS011;45919;51.420;5.454;2022-08-03T02:58:41;15.13;;;7.15;;
59028;SDS011;45919;51.420;5.454;2022-08-03T02:59:45;15.52;;;7.65;;
59028;SDS011;45919;51.420;5.454;2022-08-03T03:00:47;13.90;;;7.45;;
59028;SDS011;45919;51.420;5.454;2022-08-03T03:01:52;15.85;;;7.35;;
59028;SDS011;45919;51.420;5.454;2022-08-03T03:02:56;14.52;;;7.47;;
59028;SDS011;45919;51.420;5.454;2022-08-03T03:03:59;16.67;;;7.65;;
59028;SDS011;45919;51.420;5.454;2022-08-03T03:05:01;14.45;;;7.38;;
59028;SDS011;45919;51.420;5.454;2022-08-03T03:06:03;14.65;;;8.00;;
59028;SDS011;45919;51.420;5.454;2022-08-03T03:07:06;12.93;;;6.90;;
59028;SDS011;45919;51.420;5.454;2022-08-03T03:08:07;15.35;;;7.20;;
59028;SDS011;45919;51.420;5.454;2022-08-03T03:09:12;16.55;;;7.75;;
59028;SDS011;45919;51.420;5.454;2022-08-03T03:10:14;14.20;;;7.40;;
59028;SDS011;45919;51.420;5.454;2022-08-03T03:11:16;15.13;;;7.82;;
59028;SDS011;45919;51.420;5.454;2022-08-03T03:12:21;15.10;;;7.30;;
59028;SDS011;45919;51.420;5.454;2022-08-03T03:13:23;14.60;;;6.93;;
59028;SDS011;45919;51.420;5.454;2022-08-03T03:14:28;15.23;;;7.35;;
59028;SDS011;45919;51.420;5.454;2022-08-03T03:15:30;14.38;;;6.97;;
59028;SDS011;45919;51.420;5.454;2022-08-03T03:16:35;15.48;;;7.60;;
59028;SDS011;45919;51.420;5.454;2022-08-03T03:17:38;16.33;;;7.63;;
59028;SDS011;45919;51.420;5.454;2022-08-03T03:18:43;14.70;;;7.80;;
59028;SDS011;45919;51.420;5.454;2022-08-03T03:19:46;16.10;;;7.65;;
59028;SDS011;45919;51.420;5.454;2022-08-03T03:20:51;16.85;;;7.22;;
59028;SDS011;45919;51.420;5.454;2022-08-03T03:21:54;14.73;;;7.65;;
59028;SDS011;45919;51.420;5.454;2022-08-03T03:22:57;18.92;;;8.00;;
59028;SDS011;45919;51.420;5.454;2022-08-03T03:24:00;14.50;;;7.28;;
59028;SDS011;45919;51.420;5.454;2022-08-03T03:25:02;13.57;;;7.50;;
59028;SDS011;45919;51.420;5.454;2022-08-03T03:26:06;11.30;;;7.10;;
59028;SDS011;45919;51.420;5.454;2022-08-03T03:27:09;13.95;;;7.35;;
59028;SDS011;45919;51.420;5.454;2022-08-03T03:28:10;12.93;;;7.40;;
59028;SDS011;45919;51.420;5.454;2022-08-03T03:29:12;14.80;;;7.80;;
59028;SDS011;45919;51.420;5.454;2022-08-03T03:30:15;15.23;;;7.85;;
59028;SDS011;45919;51.420;5.454;2022-08-03T03:31:17;14.93;;;7.60;;
59028;SDS011;45919;51.420;5.454;2022-08-03T03:32:18;14.48;;;8.32;;
59028;SDS011;45919;51.420;5.454;2022-08-03T03:33:20;13.52;;;7.47;;
59028;SDS011;45919;51.420;5.454;2022-08-03T03:34:23;13.70;;;7.45;;
59028;SDS011;45919;51.420;5.454;2022-08-03T03:35:25;15.52;;;7.22;;
59028;SDS011;45919;51.420;5.454;2022-08-03T03:36:27;15.93;;;7.90;;
59028;SDS011;45919;51.420;5.454;2022-08-03T03:37:29;16.98;;;7.22;;
59028;SDS011;45919;51.420;5.454;2022-08-03T03:38:31;18.15;;;7.63;;
59028;SDS011;45919;51.420;5.454;2022-08-03T03:39:33;16.90;;;7.68;;
59028;SDS011;45919;51.420;5.454;2022-08-03T03:40:36;13.98;;;7.75;;
59028;SDS011;45919;51.420;5.454;2022-08-03T03:41:39;17.25;;;8.30;;
59028;SDS011;45919;51.420;5.454;2022-08-03T03:42:40;18.00;;;7.43;;
59028;SDS011;45919;51.420;5.454;2022-08-03T03:43:42;16.30;;;8.05;;
59028;SDS011;45919;51.420;5.454;2022-08-03T03:44:44;13.70;;;7.38;;
59028;SDS011;45919;51.420;5.454;2022-08-03T03:45:46;13.38;;;7.53;;
59028;SDS011;45919;51.420;5.454;2022-08-03T03:46:48;16.35;;;7.22;;
59028;SDS011;45919;51.420;5.454;2022-08-03T03:47:49;15.27;;;7.25;;
59028;SDS011;45919;51.420;5.454;2022-08-03T03:48:51;16.98;;;7.53;;
59028;SDS011;45919;51.420;5.454;2022-08-03T03:49:53;13.20;;;7.70;;
59028;SDS011;45919;51.420;5.454;2022-08-03T03:50:55;18.45;;;8.35;;
59028;SDS011;45919;51.420;5.454;2022-08-03T03:51:57;15.25;;;8.50;;
59028;SDS011;45919;51.420;5.454;2022-08-03T03:52:59;16.52;;;8.32;;
59028;SDS011;45919;51.420;5.454;2022-08-03T03:54:03;14.00;;;8.98;;
59028;SDS011;45919;51.420;5.454;2022-08-03T03:55:07;19.25;;;8.75;;
59028;SDS011;45919;51.420;5.454;2022-08-03T03:56:09;13.50;;;7.47;;
59028;SDS011;45919;51.420;5.454;2022-08-03T03:57:10;19.30;;;8.32;;
59028;SDS011;45919;51.420;5.454;2022-08-03T03:58:12;14.15;;;8.18;;
59028;SDS011;45919;51.420;5.454;2022-08-03T03:59:14;14.57;;;7.50;;
59028;SDS011;45919;51.420;5.454;2022-08-03T04:00:17;13.82;;;7.90;;
59028;SDS011;45919;51.420;5.454;2022-08-03T04:01:19;14.20;;;7.57;;
59028;SDS011;45919;51.420;5.454;2022-08-03T04:02:20;14.93;;;7.72;;
59028;SDS011;45919;51.420;5.454;2022-08-03T04:03:22;18.40;;;7.78;;
59028;SDS011;45919;51.420;5.454;2022-08-03T04:04:24;13.95;;;7.35;;
59028;SDS011;45919;51.420;5.454;2022-08-03T04:05:44;18.35;;;8.02;;
59028;SDS011;45919;51.420;5.454;2022-08-03T04:07:05;13.40;;;7.53;;
59028;SDS011;45919;51.420;5.454;2022-08-03T04:08:25;15.40;;;7.25;;
59028;SDS011;45919;51.420;5.454;2022-08-03T04:09:45;11.32;;;7.28;;
59028;SDS011;45919;51.420;5.454;2022-08-03T04:12:17;15.27;;;7.60;;
59028;SDS011;45919;51.420;5.454;2022-08-03T04:13:21;16.80;;;8.05;;
59028;SDS011;45919;51.420;5.454;2022-08-03T04:15:36;15.57;;;7.55;;
59028;SDS011;45919;51.420;5.454;2022-08-03T04:16:48;16.33;;;7.63;;
59028;SDS011;45919;51.420;5.454;2022-08-03T04:17:52;14.82;;;7.97;;
59028;SDS011;45919;51.420;5.454;2022-08-03T04:18:59;15.43;;;7.55;;
59028;SDS011;45919;51.420;5.454;2022-08-03T04:20:04;15.88;;;7.60;;
59028;SDS011;45919;51.420;5.454;2022-08-03T04:21:07;13.20;;;7.65;;
59028;SDS011;45919;51.420;5.454;2022-08-03T04:22:14;17.38;;;7.82;;
59028;SDS011;45919;51.420;5.454;2022-08-03T04:23:20;16.83;;;7.72;;
59028;SDS011;45919;51.420;5.454;2022-08-03T04:24:29;15.73;;;8.70;;
59028;SDS011;45919;51.420;5.454;2022-08-03T04:25:34;15.02;;;7.93;;
59028;SDS011;45919;51.420;5.454;2022-08-03T04:26:40;15.30;;;8.20;;
59028;SDS011;45919;51.420;5.454;2022-08-03T04:27:44;15.23;;;8.30;;
59028;SDS011;45919;51.420;5.454;2022-08-03T04:28:47;15.07;;;7.47;;
59028;SDS011;45919;51.420;5.454;2022-08-03T04:29:52;13.85;;;7.97;;
59028;SDS011;45919;51.420;5.454;2022-08-03T04:30:55;16.63;;;7.32;;
59028;SDS011;45919;51.420;5.454;2022-08-03T04:31:58;13.52;;;7.40;;
59028;SDS011;45919;51.420;5.454;2022-08-03T04:33:00;16.73;;;8.70;;
59028;SDS011;45919;51.420;5.454;2022-08-03T04:34:03;17.95;;;8.50;;
59028;SDS011;45919;51.420;5.454;2022-08-03T04:35:05;18.67;;;7.55;;
59028;SDS011;45919;51.420;5.454;2022-08-03T04:36:08;10.65;;;7.97;;
59028;SDS011;45919;51.420;5.454;2022-08-03T04:37:23;16.77;;;8.02;;
59028;SDS011;45919;51.420;5.454;2022-08-03T04:38:38;14.80;;;7.90;;
59028;SDS011;45919;51.420;5.454;2022-08-03T04:39:44;13.75;;;7.72;;
59028;SDS011;45919;51.420;5.454;2022-08-03T04:40:50;12.82;;;7.38;;
59028;SDS011;45919;51.420;5.454;2022-08-03T04:41:53;16.25;;;7.78;;
59028;SDS011;45919;51.420;5.454;2022-08-03T04:42:58;14.50;;;7.65;;
59028;SDS011;45919;51.420;5.454;2022-08-03T04:44:00;16.38;;;7.68;;
59028;SDS011;45919;51.420;5.454;2022-08-03T04:45:04;14.43;;;8.15;;
59028;SDS011;45919;51.420;5.454;2022-08-03T04:46:07;14.02;;;8.23;;
59028;SDS011;45919;51.420;5.454;2022-08-03T04:47:10;12.90;;;8.23;;
59028;SDS011;45919;51.420;5.454;2022-08-03T04:48:12;15.80;;;7.97;;
59028;SDS011;45919;51.420;5.454;2022-08-03T04:49:15;18.60;;;7.65;;
59028;SDS011;45919;51.420;5.454;2022-08-03T04:50:17;14.05;;;8.05;;
59028;SDS011;45919;51.420;5.454;2022-08-03T04:51:21;14.00;;;7.68;;
59028;SDS011;45919;51.420;5.454;2022-08-03T04:52:23;16.70;;;7.63;;
59028;SDS011;45919;51.420;5.454;2022-08-03T04:53:25;16.25;;;8.25;;
59028;SDS011;45919;51.420;5.454;2022-08-03T04:54:27;14.52;;;8.32;;
59028;SDS011;45919;51.420;5.454;2022-08-03T04:55:29;13.43;;;7.57;;
59028;SDS011;45919;51.420;5.454;2022-08-03T04:56:31;14.52;;;8.10;;
59028;SDS011;45919;51.420;5.454;2022-08-03T04:57:34;15.68;;;7.85;;
59028;SDS011;45919;51.420;5.454;2022-08-03T04:58:36;16.27;;;8.30;;
59028;SDS011;45919;51.420;5.454;2022-08-03T04:59:37;16.58;;;8.55;;
59028;SDS011;45919;51.420;5.454;2022-08-03T05:00:39;13.98;;;7.85;;
59028;SDS011;45919;51.420;5.454;2022-08-03T05:01:40;13.82;;;7.60;;
59028;SDS011;45919;51.420;5.454;2022-08-03T05:02:42;12.75;;;7.80;;
59028;SDS011;45919;51.420;5.454;2022-08-03T05:03:44;13.00;;;7.75;;
59028;SDS011;45919;51.420;5.454;2022-08-03T05:04:45;15.35;;;7.30;;
59028;SDS011;45919;51.420;5.454;2022-08-03T05:05:47;15.60;;;7.75;;
59028;SDS011;45919;51.420;5.454;2022-08-03T05:06:49;15.40;;;7.35;;
59028;SDS011;45919;51.420;5.454;2022-08-03T05:07:50;15.73;;;7.65;;
59028;SDS011;45919;51.420;5.454;2022-08-03T05:08:52;14.65;;;8.13;;
59028;SDS011;45919;51.420;5.454;2022-08-03T05:09:54;12.55;;;7.47;;
59028;SDS011;45919;51.420;5.454;2022-08-03T05:10:56;15.15;;;8.00;;
59028;SDS011;45919;51.420;5.454;2022-08-03T05:11:58;15.00;;;8.02;;
59028;SDS011;45919;51.420;5.454;2022-08-03T05:13:00;15.45;;;8.05;;
59028;SDS011;45919;51.420;5.454;2022-08-03T05:14:01;12.60;;;7.25;;
59028;SDS011;45919;51.420;5.454;2022-08-03T05:15:03;14.40;;;7.80;;
59028;SDS011;45919;51.420;5.454;2022-08-03T05:16:05;15.77;;;7.60;;
59028;SDS011;45919;51.420;5.454;2022-08-03T05:17:07;14.77;;;8.05;;
59028;SDS011;45919;51.420;5.454;2022-08-03T05:18:09;11.32;;;7.70;;
59028;SDS011;45919;51.420;5.454;2022-08-03T05:19:13;11.63;;;7.15;;
59028;SDS011;45919;51.420;5.454;2022-08-03T05:20:15;16.48;;;7.75;;
59028;SDS011;45919;51.420;5.454;2022-08-03T05:21:17;14.18;;;8.02;;
59028;SDS011;45919;51.420;5.454;2022-08-03T05:22:19;14.13;;;7.60;;
59028;SDS011;45919;51.420;5.454;2022-08-03T05:23:21;14.63;;;8.00;;
59028;SDS011;45919;51.420;5.454;2022-08-03T05:24:23;19.63;;;8.50;;
59028;SDS011;45919;51.420;5.454;2022-08-03T05:25:24;15.02;;;7.65;;
59028;SDS011;45919;51.420;5.454;2022-08-03T05:26:27;13.98;;;7.75;;
59028;SDS011;45919;51.420;5.454;2022-08-03T05:27:29;15.85;;;8.55;;
59028;SDS011;45919;51.420;5.454;2022-08-03T05:28:31;12.85;;;7.60;;
59028;SDS011;45919;51.420;5.454;2022-08-03T05:29:32;17.58;;;8.30;;
59028;SDS011;45919;51.420;5.454;2022-08-03T05:30:35;16.38;;;7.43;;
59028;SDS011;45919;51.420;5.454;2022-08-03T05:31:37;13.70;;;7.75;;
59028;SDS011;45919;51.420;5.454;2022-08-03T05:32:38;15.93;;;7.85;;
59028;SDS011;45919;51.420;5.454;2022-08-03T05:33:40;10.70;;;6.82;;
59028;SDS011;45919;51.420;5.454;2022-08-03T05:34:43;15.50;;;7.65;;
59028;SDS011;45919;51.420;5.454;2022-08-03T05:35:46;13.52;;;7.72;;
59028;SDS011;45919;51.420;5.454;2022-08-03T05:36:48;13.60;;;7.47;;
59028;SDS011;45919;51.420;5.454;2022-08-03T05:37:49;15.55;;;7.80;;
59028;SDS011;45919;51.420;5.454;2022-08-03T05:38:51;15.95;;;8.00;;
59028;SDS011;45919;51.420;5.454;2022-08-03T05:39:53;14.27;;;8.00;;
59028;SDS011;45919;51.420;5.454;2022-08-03T05:40:55;13.70;;;7.70;;
59028;SDS011;45919;51.420;5.454;2022-08-03T05:41:58;12.02;;;7.32;;
59028;SDS011;45919;51.420;5.454;2022-08-03T05:42:59;15.02;;;7.50;;
59028;SDS011;45919;51.420;5.454;2022-08-03T05:44:01;13.27;;;7.72;;
59028;SDS011;45919;51.420;5.454;2022-08-03T05:45:04;16.58;;;7.55;;
59028;SDS011;45919;51.420;5.454;2022-08-03T05:46:15;17.00;;;7.38;;
59028;SDS011;45919;51.420;5.454;2022-08-03T05:47:16;15.43;;;7.80;;
59028;SDS011;45919;51.420;5.454;2022-08-03T05:48:18;11.13;;;7.13;;
59028;SDS011;45919;51.420;5.454;2022-08-03T05:49:19;17.40;;;8.00;;
59028;SDS011;45919;51.420;5.454;2022-08-03T05:50:21;11.05;;;7.28;;
59028;SDS011;45919;51.420;5.454;2022-08-03T05:51:23;15.27;;;6.78;;
59028;SDS011;45919;51.420;5.454;2022-08-03T05:52:25;13.23;;;7.00;;
59028;SDS011;45919;51.420;5.454;2022-08-03T05:53:28;15.27;;;7.82;;
59028;SDS011;45919;51.420;5.454;2022-08-03T05:54:33;13.05;;;7.43;;
59028;SDS011;45919;51.420;5.454;2022-08-03T05:55:34;13.50;;;6.88;;
59028;SDS011;45919;51.420;5.454;2022-08-03T05:56:36;14.20;;;7.20;;
59028;SDS011;45919;51.420;5.454;2022-08-03T05:57:37;16.52;;;7.38;;
59028;SDS011;45919;51.420;5.454;2022-08-03T05:58:39;14.82;;;7.45;;
59028;SDS011;45919;51.420;5.454;2022-08-03T05:59:42;14.10;;;7.72;;
59028;SDS011;45919;51.420;5.454;2022-08-03T06:00:43;15.57;;;8.43;;
59028;SDS011;45919;51.420;5.454;2022-08-03T06:01:45;15.13;;;7.45;;
59028;SDS011;45919;51.420;5.454;2022-08-03T06:02:46;11.75;;;6.97;;
59028;SDS011;45919;51.420;5.454;2022-08-03T06:03:49;12.65;;;7.03;;
59028;SDS011;45919;51.420;5.454;2022-08-03T06:04:51;14.32;;;6.88;;
59028;SDS011;45919;51.420;5.454;2022-08-03T06:05:53;11.60;;;6.68;;
59028;SDS011;45919;51.420;5.454;2022-08-03T06:06:56;14.90;;;6.82;;
59028;SDS011;45919;51.420;5.454;2022-08-03T06:07:58;10.20;;;6.53;;
59028;SDS011;45919;51.420;5.454;2022-08-03T06:09:00;13.32;;;6.80;;
59028;SDS011;45919;51.420;5.454;2022-08-03T06:10:02;12.98;;;6.95;;
59028;SDS011;45919;51.420;5.454;2022-08-03T06:11:04;14.65;;;6.32;;
59028;SDS011;45919;51.420;5.454;2022-08-03T06:12:06;10.60;;;6.30;;
59028;SDS011;45919;51.420;5.454;2022-08-03T06:13:10;14.23;;;6.80;;
59028;SDS011;45919;51.420;5.454;2022-08-03T06:14:11;16.85;;;6.60;;
59028;SDS011;45919;51.420;5.454;2022-08-03T06:15:13;10.65;;;6.22;;
59028;SDS011;45919;51.420;5.454;2022-08-03T06:16:15;12.93;;;6.40;;
59028;SDS011;45919;51.420;5.454;2022-08-03T06:17:17;16.63;;;6.05;;
59028;SDS011;45919;51.420;5.454;2022-08-03T06:18:19;12.55;;;5.90;;
59028;SDS011;45919;51.420;5.454;2022-08-03T06:19:20;12.77;;;5.88;;
59028;SDS011;45919;51.420;5.454;2022-08-03T06:20:23;14.30;;;6.15;;
59028;SDS011;45919;51.420;5.454;2022-08-03T06:21:25;12.43;;;5.88;;
59028;SDS011;45919;51.420;5.454;2022-08-03T06:22:26;12.75;;;5.88;;
59028;SDS011;45919;51.420;5.454;2022-08-03T06:23:28;11.48;;;5.70;;
59028;SDS011;45919;51.420;5.454;2022-08-03T06:24:29;13.55;;;5.90;;
59028;SDS011;45919;51.420;5.454;2022-08-03T06:25:31;12.10;;;5.40;;
59028;SDS011;45919;51.420;5.454;2022-08-03T06:26:33;11.63;;;5.60;;
59028;SDS011;45919;51.420;5.454;2022-08-03T06:27:35;15.60;;;5.93;;
59028;SDS011;45919;51.420;5.454;2022-08-03T06:28:40;13.90;;;5.75;;
59028;SDS011;45919;51.420;5.454;2022-08-03T06:29:43;14.73;;;5.60;;
59028;SDS011;45919;51.420;5.454;2022-08-03T06:30:45;10.90;;;5.15;;
59028;SDS011;45919;51.420;5.454;2022-08-03T06:31:47;12.32;;;5.28;;
59028;SDS011;45919;51.420;5.454;2022-08-03T06:32:48;9.38;;;5.07;;
59028;SDS011;45919;51.420;5.454;2022-08-03T06:33:50;10.60;;;5.25;;
59028;SDS011;45919;51.420;5.454;2022-08-03T06:34:52;11.65;;;5.10;;
59028;SDS011;45919;51.420;5.454;2022-08-03T06:35:53;14.35;;;5.13;;
59028;SDS011;45919;51.420;5.454;2022-08-03T06:36:55;14.55;;;4.95;;